sensor_id;sensor_type;location;lat;lon;timestamp;temperature;humidity
4501;DHT22;2263;54.654;9.410;2023-05-18T00:01:42;12.40;61.20
4501;DHT22;2263;54.654;9.410;2023-05-18T00:04:10;12.40;61.80
4501;DHT22;2263;54.654;9.410;2023-05-18T00:06:37;12.40;61.20
4501;DHT22;2263;54.654;9.410;2023-05-18T00:09:05;12.40;61.00
4501;DHT22;2263;54.654;9.410;2023-05-18T00:11:32;12.40;61.70
4501;DHT22;2263;54.654;9.410;2023-05-18T00:14:01;12.40;61.50
4501;DHT22;2263;54.654;9.410;2023-05-18T00:16:29;12.30;61.50
4501;DHT22;2263;54.654;9.410;2023-05-18T00:18:57;12.40;61.80
4501;DHT22;2263;54.654;9.410;2023-05-18T00:21:24;12.30;61.80
4501;DHT22;2263;54.654;9.410;2023-05-18T00:23:56;12.30;61.60
4501;DHT22;2263;54.654;9.410;2023-05-18T00:26:24;12.30;61.50
4501;DHT22;2263;54.654;9.410;2023-05-18T00:28:52;12.30;61.80
4501;DHT22;2263;54.654;9.410;2023-05-18T00:31:20;12.30;62.00
4501;DHT22;2263;54.654;9.410;2023-05-18T00:33:48;12.30;62.20
4501;DHT22;2263;54.654;9.410;2023-05-18T00:36:15;12.30;62.00
4501;DHT22;2263;54.654;9.410;2023-05-18T00:38:43;12.20;61.70
4501;DHT22;2263;54.654;9.410;2023-05-18T00:41:11;12.20;62.70
4501;DHT22;2263;54.654;9.410;2023-05-18T00:43:41;12.20;62.00
4501;DHT22;2263;54.654;9.410;2023-05-18T00:46:09;12.20;61.80
4501;DHT22;2263;54.654;9.410;2023-05-18T00:48:37;12.20;61.60
4501;DHT22;2263;54.654;9.410;2023-05-18T00:51:05;12.20;62.00
4501;DHT22;2263;54.654;9.410;2023-05-18T00:53:33;12.20;62.00
4501;DHT22;2263;54.654;9.410;2023-05-18T00:56:01;12.20;61.70
4501;DHT22;2263;54.654;9.410;2023-05-18T00:58:29;12.10;62.00
4501;DHT22;2263;54.654;9.410;2023-05-18T01:00:57;12.10;61.60
4501;DHT22;2263;54.654;9.410;2023-05-18T01:03:26;12.10;61.90
4501;DHT22;2263;54.654;9.410;2023-05-18T01:05:56;12.10;61.90
4501;DHT22;2263;54.654;9.410;2023-05-18T01:08:25;12.10;62.00
4501;DHT22;2263;54.654;9.410;2023-05-18T01:11:15;12.10;62.20
4501;DHT22;2263;54.654;9.410;2023-05-18T01:14:00;12.10;61.80
4501;DHT22;2263;54.654;9.410;2023-05-18T01:17:28;12.00;62.40
4501;DHT22;2263;54.654;9.410;2023-05-18T01:22:58;12.00;62.10
4501;DHT22;2263;54.654;9.410;2023-05-18T01:25:33;12.00;62.20
4501;DHT22;2263;54.654;9.410;2023-05-18T01:28:14;11.90;62.10
4501;DHT22;2263;54.654;9.410;2023-05-18T01:30:44;11.90;62.10
4501;DHT22;2263;54.654;9.410;2023-05-18T01:33:13;11.90;62.50
4501;DHT22;2263;54.654;9.410;2023-05-18T01:35:41;11.90;62.50
4501;DHT22;2263;54.654;9.410;2023-05-18T01:38:23;11.90;62.50
4501;DHT22;2263;54.654;9.410;2023-05-18T01:44:10;11.90;62.60
4501;DHT22;2263;54.654;9.410;2023-05-18T01:47:07;11.80;62.70
4501;DHT22;2263;54.654;9.410;2023-05-18T01:52:35;11.80;62.30
4501;DHT22;2263;54.654;9.410;2023-05-18T01:55:02;11.80;62.50
4501;DHT22;2263;54.654;9.410;2023-05-18T01:57:31;11.80;62.50
4501;DHT22;2263;54.654;9.410;2023-05-18T02:00:00;11.70;62.10
4501;DHT22;2263;54.654;9.410;2023-05-18T02:02:28;11.70;62.10
4501;DHT22;2263;54.654;9.410;2023-05-18T02:04:56;11.70;62.30
4501;DHT22;2263;54.654;9.410;2023-05-18T02:07:23;11.70;62.30
4501;DHT22;2263;54.654;9.410;2023-05-18T02:09:54;11.70;61.90
4501;DHT22;2263;54.654;9.410;2023-05-18T02:12:22;11.70;61.90
4501;DHT22;2263;54.654;9.410;2023-05-18T02:14:49;11.70;62.50
4501;DHT22;2263;54.654;9.410;2023-05-18T02:17:17;11.60;62.00
4501;DHT22;2263;54.654;9.410;2023-05-18T02:19:45;11.60;62.30
4501;DHT22;2263;54.654;9.410;2023-05-18T02:22:13;11.60;62.20
4501;DHT22;2263;54.654;9.410;2023-05-18T02:24:40;11.60;62.70
4501;DHT22;2263;54.654;9.410;2023-05-18T02:27:08;11.60;62.00
4501;DHT22;2263;54.654;9.410;2023-05-18T02:29:35;11.60;61.80
4501;DHT22;2263;54.654;9.410;2023-05-18T02:32:04;11.60;62.50
4501;DHT22;2263;54.654;9.410;2023-05-18T02:34:32;11.50;62.20
4501;DHT22;2263;54.654;9.410;2023-05-18T02:37:01;11.50;62.20
4501;DHT22;2263;54.654;9.410;2023-05-18T02:39:30;11.50;62.00
4501;DHT22;2263;54.654;9.410;2023-05-18T02:41:57;11.50;62.10
4501;DHT22;2263;54.654;9.410;2023-05-18T02:44:25;11.50;61.70
4501;DHT22;2263;54.654;9.410;2023-05-18T02:46:53;11.40;62.00
4501;DHT22;2263;54.654;9.410;2023-05-18T02:49:21;11.40;62.20
4501;DHT22;2263;54.654;9.410;2023-05-18T02:51:48;11.40;61.80
4501;DHT22;2263;54.654;9.410;2023-05-18T02:54:16;11.40;61.80
4501;DHT22;2263;54.654;9.410;2023-05-18T02:56:43;11.40;62.00
4501;DHT22;2263;54.654;9.410;2023-05-18T02:59:11;11.40;61.90
4501;DHT22;2263;54.654;9.410;2023-05-18T03:01:39;11.30;61.90
4501;DHT22;2263;54.654;9.410;2023-05-18T03:04:07;11.30;61.80
4501;DHT22;2263;54.654;9.410;2023-05-18T03:06:34;11.30;61.80
4501;DHT22;2263;54.654;9.410;2023-05-18T03:09:02;11.30;61.60
4501;DHT22;2263;54.654;9.410;2023-05-18T03:11:30;11.30;62.40
4501;DHT22;2263;54.654;9.410;2023-05-18T03:13:57;11.30;62.50
4501;DHT22;2263;54.654;9.410;2023-05-18T03:16:25;11.20;62.70
4501;DHT22;2263;54.654;9.410;2023-05-18T03:18:54;11.20;62.70
4501;DHT22;2263;54.654;9.410;2023-05-18T03:21:25;11.20;62.90
4501;DHT22;2263;54.654;9.410;2023-05-18T03:24:00;11.20;62.40
4501;DHT22;2263;54.654;9.410;2023-05-18T03:26:28;11.20;62.50
4501;DHT22;2263;54.654;9.410;2023-05-18T03:28:58;11.20;62.00
4501;DHT22;2263;54.654;9.410;2023-05-18T03:31:27;11.20;62.60
4501;DHT22;2263;54.654;9.410;2023-05-18T03:33:55;11.20;62.40
4501;DHT22;2263;54.654;9.410;2023-05-18T03:36:22;11.20;62.60
4501;DHT22;2263;54.654;9.410;2023-05-18T03:38:52;11.10;62.50
4501;DHT22;2263;54.654;9.410;2023-05-18T03:41:20;11.10;62.60
4501;DHT22;2263;54.654;9.410;2023-05-18T03:43:48;11.10;63.40
4501;DHT22;2263;54.654;9.410;2023-05-18T03:46:16;11.10;62.60
4501;DHT22;2263;54.654;9.410;2023-05-18T03:48:44;11.10;62.70
4501;DHT22;2263;54.654;9.410;2023-05-18T03:51:12;11.10;63.00
4501;DHT22;2263;54.654;9.410;2023-05-18T03:53:39;11.10;63.00
4501;DHT22;2263;54.654;9.410;2023-05-18T03:56:08;11.10;62.90
4501;DHT22;2263;54.654;9.410;2023-05-18T03:58:35;11.10;63.00
4501;DHT22;2263;54.654;9.410;2023-05-18T04:01:03;11.10;63.20
4501;DHT22;2263;54.654;9.410;2023-05-18T04:03:31;11.10;63.10
4501;DHT22;2263;54.654;9.410;2023-05-18T04:06:01;11.00;63.00
4501;DHT22;2263;54.654;9.410;2023-05-18T04:08:28;11.00;63.10
4501;DHT22;2263;54.654;9.410;2023-05-18T04:10:56;11.00;63.40
4501;DHT22;2263;54.654;9.410;2023-05-18T04:13:24;11.00;63.10
4501;DHT22;2263;54.654;9.410;2023-05-18T04:15:51;11.00;63.30
4501;DHT22;2263;54.654;9.410;2023-05-18T04:18:19;11.00;63.60
4501;DHT22;2263;54.654;9.410;2023-05-18T04:20:47;11.00;63.80
4501;DHT22;2263;54.654;9.410;2023-05-18T04:23:15;11.00;63.60
4501;DHT22;2263;54.654;9.410;2023-05-18T04:25:43;11.10;63.60
4501;DHT22;2263;54.654;9.410;2023-05-18T04:28:11;11.00;63.60
4501;DHT22;2263;54.654;9.410;2023-05-18T04:30:38;11.00;63.80
4501;DHT22;2263;54.654;9.410;2023-05-18T04:33:06;11.00;63.70
4501;DHT22;2263;54.654;9.410;2023-05-18T04:35:37;11.00;63.80
4501;DHT22;2263;54.654;9.410;2023-05-18T04:38:05;11.00;63.70
4501;DHT22;2263;54.654;9.410;2023-05-18T04:40:33;11.00;63.60
4501;DHT22;2263;54.654;9.410;2023-05-18T04:43:00;11.00;64.00
4501;DHT22;2263;54.654;9.410;2023-05-18T04:45:28;11.00;63.90
4501;DHT22;2263;54.654;9.410;2023-05-18T04:47:56;11.00;63.90
4501;DHT22;2263;54.654;9.410;2023-05-18T04:50:24;11.00;64.00
4501;DHT22;2263;54.654;9.410;2023-05-18T04:52:58;11.00;64.00
4501;DHT22;2263;54.654;9.410;2023-05-18T04:55:28;11.00;64.00
4501;DHT22;2263;54.654;9.410;2023-05-18T04:57:58;11.00;63.90
4501;DHT22;2263;54.654;9.410;2023-05-18T05:00:28;11.00;64.10
4501;DHT22;2263;54.654;9.410;2023-05-18T05:02:58;11.00;64.10
4501;DHT22;2263;54.654;9.410;2023-05-18T05:05:26;11.00;64.10
4501;DHT22;2263;54.654;9.410;2023-05-18T05:07:54;11.00;64.10
4501;DHT22;2263;54.654;9.410;2023-05-18T05:10:22;11.00;64.10
4501;DHT22;2263;54.654;9.410;2023-05-18T05:12:50;11.00;64.10
4501;DHT22;2263;54.654;9.410;2023-05-18T05:15:18;11.00;64.50
4501;DHT22;2263;54.654;9.410;2023-05-18T05:17:46;11.00;64.10
4501;DHT22;2263;54.654;9.410;2023-05-18T05:20:14;11.00;64.20
4501;DHT22;2263;54.654;9.410;2023-05-18T05:22:42;11.00;64.20
4501;DHT22;2263;54.654;9.410;2023-05-18T05:25:10;11.00;64.20
4501;DHT22;2263;54.654;9.410;2023-05-18T05:27:38;11.00;64.20
4501;DHT22;2263;54.654;9.410;2023-05-18T05:30:06;11.00;64.20
4501;DHT22;2263;54.654;9.410;2023-05-18T05:32:34;11.00;64.20
4501;DHT22;2263;54.654;9.410;2023-05-18T05:35:03;11.00;64.30
4501;DHT22;2263;54.654;9.410;2023-05-18T05:37:31;11.00;64.30
4501;DHT22;2263;54.654;9.410;2023-05-18T05:39:58;11.00;64.30
4501;DHT22;2263;54.654;9.410;2023-05-18T05:42:26;11.00;64.30
4501;DHT22;2263;54.654;9.410;2023-05-18T05:44:54;11.00;64.20
4501;DHT22;2263;54.654;9.410;2023-05-18T05:47:21;11.00;64.30
4501;DHT22;2263;54.654;9.410;2023-05-18T05:49:49;11.00;64.30
4501;DHT22;2263;54.654;9.410;2023-05-18T05:52:17;11.00;64.30
4501;DHT22;2263;54.654;9.410;2023-05-18T05:54:44;11.00;64.30
4501;DHT22;2263;54.654;9.410;2023-05-18T05:57:12;11.00;64.30
4501;DHT22;2263;54.654;9.410;2023-05-18T05:59:40;11.00;64.30
4501;DHT22;2263;54.654;9.410;2023-05-18T06:02:07;11.00;64.20
4501;DHT22;2263;54.654;9.410;2023-05-18T06:04:35;11.00;64.30
4501;DHT22;2263;54.654;9.410;2023-05-18T06:07:03;11.00;64.30
4501;DHT22;2263;54.654;9.410;2023-05-18T06:09:31;11.00;64.30
4501;DHT22;2263;54.654;9.410;2023-05-18T06:11:58;11.10;64.30
4501;DHT22;2263;54.654;9.410;2023-05-18T06:14:26;11.10;64.30
4501;DHT22;2263;54.654;9.410;2023-05-18T06:16:53;11.10;64.20
4501;DHT22;2263;54.654;9.410;2023-05-18T06:19:22;11.10;64.40
4501;DHT22;2263;54.654;9.410;2023-05-18T06:21:49;11.10;64.40
4501;DHT22;2263;54.654;9.410;2023-05-18T06:24:17;11.10;64.50
4501;DHT22;2263;54.654;9.410;2023-05-18T06:26:45;11.10;64.50
4501;DHT22;2263;54.654;9.410;2023-05-18T06:29:13;11.10;64.50
4501;DHT22;2263;54.654;9.410;2023-05-18T06:31:40;11.10;64.60
4501;DHT22;2263;54.654;9.410;2023-05-18T06:34:08;11.10;64.60
4501;DHT22;2263;54.654;9.410;2023-05-18T06:36:37;11.20;64.70
4501;DHT22;2263;54.654;9.410;2023-05-18T06:39:05;11.20;64.70
4501;DHT22;2263;54.654;9.410;2023-05-18T06:41:33;11.20;64.80
4501;DHT22;2263;54.654;9.410;2023-05-18T06:44:00;11.20;64.80
4501;DHT22;2263;54.654;9.410;2023-05-18T06:46:28;11.20;64.80
4501;DHT22;2263;54.654;9.410;2023-05-18T06:48:56;11.20;64.80
4501;DHT22;2263;54.654;9.410;2023-05-18T06:51:24;11.20;64.90
4501;DHT22;2263;54.654;9.410;2023-05-18T06:53:51;11.20;64.90
4501;DHT22;2263;54.654;9.410;2023-05-18T06:56:19;11.20;64.90
4501;DHT22;2263;54.654;9.410;2023-05-18T06:58:48;11.20;65.00
4501;DHT22;2263;54.654;9.410;2023-05-18T07:01:15;11.30;65.10
4501;DHT22;2263;54.654;9.410;2023-05-18T07:03:44;11.20;65.10
4501;DHT22;2263;54.654;9.410;2023-05-18T07:06:11;11.30;65.20
4501;DHT22;2263;54.654;9.410;2023-05-18T07:08:39;11.30;65.20
4501;DHT22;2263;54.654;9.410;2023-05-18T07:11:07;11.30;65.20
4501;DHT22;2263;54.654;9.410;2023-05-18T07:13:35;11.30;65.20
4501;DHT22;2263;54.654;9.410;2023-05-18T07:16:03;11.30;65.10
4501;DHT22;2263;54.654;9.410;2023-05-18T07:18:31;11.30;65.10
4501;DHT22;2263;54.654;9.410;2023-05-18T07:21:00;11.40;65.20
4501;DHT22;2263;54.654;9.410;2023-05-18T07:23:27;11.40;65.30
4501;DHT22;2263;54.654;9.410;2023-05-18T07:25:56;11.40;65.20
4501;DHT22;2263;54.654;9.410;2023-05-18T07:28:24;11.40;65.30
4501;DHT22;2263;54.654;9.410;2023-05-18T07:30:52;11.50;65.40
4501;DHT22;2263;54.654;9.410;2023-05-18T07:33:19;11.50;65.40
4501;DHT22;2263;54.654;9.410;2023-05-18T07:35:47;11.50;65.40
4501;DHT22;2263;54.654;9.410;2023-05-18T07:38:15;11.50;65.40
4501;DHT22;2263;54.654;9.410;2023-05-18T07:40:42;11.60;65.10
4501;DHT22;2263;54.654;9.410;2023-05-18T07:43:10;11.60;65.20
4501;DHT22;2263;54.654;9.410;2023-05-18T07:45:38;11.60;65.40
4501;DHT22;2263;54.654;9.410;2023-05-18T07:48:06;11.60;65.40
4501;DHT22;2263;54.654;9.410;2023-05-18T07:50:34;11.70;65.60
4501;DHT22;2263;54.654;9.410;2023-05-18T07:53:02;11.70;65.60
4501;DHT22;2263;54.654;9.410;2023-05-18T07:55:29;11.70;65.60
4501;DHT22;2263;54.654;9.410;2023-05-18T07:57:58;11.70;65.50
4501;DHT22;2263;54.654;9.410;2023-05-18T08:00:27;11.80;65.60
4501;DHT22;2263;54.654;9.410;2023-05-18T08:02:58;11.70;65.50
4501;DHT22;2263;54.654;9.410;2023-05-18T08:05:27;11.80;65.60
4501;DHT22;2263;54.654;9.410;2023-05-18T08:07:55;11.80;65.40
4501;DHT22;2263;54.654;9.410;2023-05-18T08:10:23;11.90;65.60
4501;DHT22;2263;54.654;9.410;2023-05-18T08:12:51;11.90;65.60
4501;DHT22;2263;54.654;9.410;2023-05-18T08:15:19;11.90;65.70
4501;DHT22;2263;54.654;9.410;2023-05-18T08:17:46;11.90;65.70
4501;DHT22;2263;54.654;9.410;2023-05-18T08:20:14;12.00;66.00
4501;DHT22;2263;54.654;9.410;2023-05-18T08:22:43;12.00;65.90
4501;DHT22;2263;54.654;9.410;2023-05-18T08:25:10;12.10;65.80
4501;DHT22;2263;54.654;9.410;2023-05-18T08:27:38;12.10;65.80
4501;DHT22;2263;54.654;9.410;2023-05-18T08:30:06;12.10;65.80
4501;DHT22;2263;54.654;9.410;2023-05-18T08:32:34;12.10;65.80
4501;DHT22;2263;54.654;9.410;2023-05-18T08:35:07;12.20;66.00
4501;DHT22;2263;54.654;9.410;2023-05-18T08:37:34;12.20;66.00
4501;DHT22;2263;54.654;9.410;2023-05-18T08:40:04;12.30;66.10
4501;DHT22;2263;54.654;9.410;2023-05-18T08:42:43;12.20;66.70
4501;DHT22;2263;54.654;9.410;2023-05-18T08:45:38;12.30;66.10
4501;DHT22;2263;54.654;9.410;2023-05-18T08:48:06;12.40;66.20
4501;DHT22;2263;54.654;9.410;2023-05-18T08:50:35;12.40;66.30
4501;DHT22;2263;54.654;9.410;2023-05-18T08:53:05;12.40;66.20
4501;DHT22;2263;54.654;9.410;2023-05-18T08:55:32;12.40;66.10
4501;DHT22;2263;54.654;9.410;2023-05-18T08:58:06;12.50;66.20
4501;DHT22;2263;54.654;9.410;2023-05-18T09:00:36;12.50;66.20
4501;DHT22;2263;54.654;9.410;2023-05-18T09:03:04;12.50;66.20
4501;DHT22;2263;54.654;9.410;2023-05-18T09:05:32;12.60;66.30
4501;DHT22;2263;54.654;9.410;2023-05-18T09:08:01;12.60;66.30
4501;DHT22;2263;54.654;9.410;2023-05-18T09:10:31;12.60;66.30
4501;DHT22;2263;54.654;9.410;2023-05-18T09:13:00;12.70;66.40
4501;DHT22;2263;54.654;9.410;2023-05-18T09:15:32;12.70;66.40
4501;DHT22;2263;54.654;9.410;2023-05-18T09:18:01;12.70;66.40
4501;DHT22;2263;54.654;9.410;2023-05-18T09:20:30;12.80;66.10
4501;DHT22;2263;54.654;9.410;2023-05-18T09:22:58;12.80;66.00
4501;DHT22;2263;54.654;9.410;2023-05-18T09:25:26;12.80;66.00
4501;DHT22;2263;54.654;9.410;2023-05-18T09:27:54;12.90;66.20
4501;DHT22;2263;54.654;9.410;2023-05-18T09:30:23;12.90;66.30
4501;DHT22;2263;54.654;9.410;2023-05-18T09:32:52;12.90;66.30
4501;DHT22;2263;54.654;9.410;2023-05-18T09:35:20;13.00;66.10
4501;DHT22;2263;54.654;9.410;2023-05-18T09:37:49;13.00;65.80
4501;DHT22;2263;54.654;9.410;2023-05-18T09:40:18;13.10;66.10
4501;DHT22;2263;54.654;9.410;2023-05-18T09:42:54;13.10;66.20
4501;DHT22;2263;54.654;9.410;2023-05-18T09:45:22;13.10;66.30
4501;DHT22;2263;54.654;9.410;2023-05-18T09:47:52;13.20;66.40
4501;DHT22;2263;54.654;9.410;2023-05-18T09:50:21;13.20;66.50
4501;DHT22;2263;54.654;9.410;2023-05-18T09:52:49;13.20;66.50
4501;DHT22;2263;54.654;9.410;2023-05-18T09:55:18;13.30;66.60
4501;DHT22;2263;54.654;9.410;2023-05-18T09:57:50;13.30;66.70
4501;DHT22;2263;54.654;9.410;2023-05-18T10:00:20;13.40;66.70
4501;DHT22;2263;54.654;9.410;2023-05-18T10:02:51;13.40;66.80
4501;DHT22;2263;54.654;9.410;2023-05-18T10:05:20;13.50;66.80
4501;DHT22;2263;54.654;9.410;2023-05-18T10:07:51;13.50;66.50
4501;DHT22;2263;54.654;9.410;2023-05-18T10:10:21;13.50;66.50
4501;DHT22;2263;54.654;9.410;2023-05-18T10:12:50;13.50;66.60
4501;DHT22;2263;54.654;9.410;2023-05-18T10:15:21;13.60;66.70
4501;DHT22;2263;54.654;9.410;2023-05-18T10:17:50;13.60;66.80
4501;DHT22;2263;54.654;9.410;2023-05-18T10:20:19;13.70;66.90
4501;DHT22;2263;54.654;9.410;2023-05-18T10:22:48;13.70;66.80
4501;DHT22;2263;54.654;9.410;2023-05-18T10:25:18;13.80;66.90
4501;DHT22;2263;54.654;9.410;2023-05-18T10:28:02;13.80;66.90
4501;DHT22;2263;54.654;9.410;2023-05-18T10:30:33;13.80;67.00
4501;DHT22;2263;54.654;9.410;2023-05-18T10:33:01;13.90;67.00
4501;DHT22;2263;54.654;9.410;2023-05-18T10:35:44;13.90;67.00
4501;DHT22;2263;54.654;9.410;2023-05-18T10:38:26;14.00;67.10
4501;DHT22;2263;54.654;9.410;2023-05-18T10:40:56;14.00;67.10
4501;DHT22;2263;54.654;9.410;2023-05-18T10:43:28;14.00;67.10
4501;DHT22;2263;54.654;9.410;2023-05-18T10:45:58;14.00;67.10
4501;DHT22;2263;54.654;9.410;2023-05-18T10:48:28;14.10;67.20
4501;DHT22;2263;54.654;9.410;2023-05-18T10:50:57;14.10;67.00
4501;DHT22;2263;54.654;9.410;2023-05-18T10:53:27;14.20;67.00
4501;DHT22;2263;54.654;9.410;2023-05-18T10:55:58;14.20;67.10
4501;DHT22;2263;54.654;9.410;2023-05-18T10:58:28;14.30;66.90
4501;DHT22;2263;54.654;9.410;2023-05-18T11:01:00;14.30;66.90
4501;DHT22;2263;54.654;9.410;2023-05-18T11:03:35;14.40;67.00
4501;DHT22;2263;54.654;9.410;2023-05-18T11:06:10;14.40;67.00
4501;DHT22;2263;54.654;9.410;2023-05-18T11:08:42;14.40;67.00
4501;DHT22;2263;54.654;9.410;2023-05-18T11:11:14;14.50;67.20
4501;DHT22;2263;54.654;9.410;2023-05-18T11:13:49;14.50;67.00
4501;DHT22;2263;54.654;9.410;2023-05-18T11:16:18;14.50;66.90
4501;DHT22;2263;54.654;9.410;2023-05-18T11:18:49;14.60;67.00
4501;DHT22;2263;54.654;9.410;2023-05-18T11:21:19;14.60;66.90
4501;DHT22;2263;54.654;9.410;2023-05-18T11:26:47;14.70;66.60
4501;DHT22;2263;54.654;9.410;2023-05-18T11:29:23;14.80;66.30
4501;DHT22;2263;54.654;9.410;2023-05-18T11:31:53;14.80;66.40
4501;DHT22;2263;54.654;9.410;2023-05-18T11:34:43;14.80;66.50
4501;DHT22;2263;54.654;9.410;2023-05-18T11:37:13;14.80;66.60
4501;DHT22;2263;54.654;9.410;2023-05-18T11:39:51;14.80;66.70
4501;DHT22;2263;54.654;9.410;2023-05-18T11:42:36;14.80;66.50
4501;DHT22;2263;54.654;9.410;2023-05-18T11:45:11;14.90;66.50
4501;DHT22;2263;54.654;9.410;2023-05-18T11:47:43;14.80;66.20
4501;DHT22;2263;54.654;9.410;2023-05-18T11:50:11;14.90;66.30
4501;DHT22;2263;54.654;9.410;2023-05-18T11:52:50;14.90;66.40
4501;DHT22;2263;54.654;9.410;2023-05-18T11:55:36;14.90;66.30
4501;DHT22;2263;54.654;9.410;2023-05-18T11:58:06;15.00;66.40
4501;DHT22;2263;54.654;9.410;2023-05-18T12:00:36;15.00;66.50
4501;DHT22;2263;54.654;9.410;2023-05-18T12:03:04;15.00;66.50
4501;DHT22;2263;54.654;9.410;2023-05-18T12:05:35;15.10;66.50
4501;DHT22;2263;54.654;9.410;2023-05-18T12:08:03;15.10;66.60
4501;DHT22;2263;54.654;9.410;2023-05-18T12:10:36;15.10;66.60
4501;DHT22;2263;54.654;9.410;2023-05-18T12:13:04;15.20;66.70
4501;DHT22;2263;54.654;9.410;2023-05-18T12:15:32;15.20;66.60
4501;DHT22;2263;54.654;9.410;2023-05-18T12:18:01;15.20;66.60
4501;DHT22;2263;54.654;9.410;2023-05-18T12:20:29;15.30;66.80
4501;DHT22;2263;54.654;9.410;2023-05-18T12:22:57;15.30;66.80
4501;DHT22;2263;54.654;9.410;2023-05-18T12:25:26;15.30;66.80
4501;DHT22;2263;54.654;9.410;2023-05-18T12:27:54;15.30;66.80
4501;DHT22;2263;54.654;9.410;2023-05-18T12:30:25;15.30;66.80
4501;DHT22;2263;54.654;9.410;2023-05-18T12:33:02;15.40;66.90
4501;DHT22;2263;54.654;9.410;2023-05-18T12:35:30;15.40;66.80
4501;DHT22;2263;54.654;9.410;2023-05-18T12:37:59;15.50;66.90
4501;DHT22;2263;54.654;9.410;2023-05-18T12:40:36;15.50;66.70
4501;DHT22;2263;54.654;9.410;2023-05-18T12:43:11;15.50;66.60
4501;DHT22;2263;54.654;9.410;2023-05-18T12:45:39;15.50;66.60
4501;DHT22;2263;54.654;9.410;2023-05-18T12:48:11;15.60;66.70
4501;DHT22;2263;54.654;9.410;2023-05-18T12:50:49;15.60;66.60
4501;DHT22;2263;54.654;9.410;2023-05-18T12:53:18;15.70;66.80
4501;DHT22;2263;54.654;9.410;2023-05-18T12:55:58;15.70;66.70
4501;DHT22;2263;54.654;9.410;2023-05-18T12:58:26;15.70;66.70
4501;DHT22;2263;54.654;9.410;2023-05-18T13:00:55;15.70;66.80
4501;DHT22;2263;54.654;9.410;2023-05-18T13:03:23;15.70;66.70
4501;DHT22;2263;54.654;9.410;2023-05-18T13:06:05;15.80;66.70
4501;DHT22;2263;54.654;9.410;2023-05-18T13:08:34;15.80;66.60
4501;DHT22;2263;54.654;9.410;2023-05-18T13:11:08;15.80;66.60
4501;DHT22;2263;54.654;9.410;2023-05-18T13:14:06;15.90;66.70
4501;DHT22;2263;54.654;9.410;2023-05-18T13:16:37;15.90;66.70
4501;DHT22;2263;54.654;9.410;2023-05-18T13:19:07;15.90;66.40
4501;DHT22;2263;54.654;9.410;2023-05-18T13:21:35;15.90;66.60
4501;DHT22;2263;54.654;9.410;2023-05-18T13:24:03;15.90;66.70
4501;DHT22;2263;54.654;9.410;2023-05-18T13:26:31;15.90;66.70
4501;DHT22;2263;54.654;9.410;2023-05-18T13:28:59;15.90;66.70
4501;DHT22;2263;54.654;9.410;2023-05-18T13:31:27;15.90;66.80
4501;DHT22;2263;54.654;9.410;2023-05-18T13:33:57;16.00;66.80
4501;DHT22;2263;54.654;9.410;2023-05-18T13:36:25;16.00;66.80
4501;DHT22;2263;54.654;9.410;2023-05-18T13:38:55;16.10;66.80
4501;DHT22;2263;54.654;9.410;2023-05-18T13:41:24;16.10;66.80
4501;DHT22;2263;54.654;9.410;2023-05-18T13:43:51;16.10;66.90
4501;DHT22;2263;54.654;9.410;2023-05-18T13:46:19;16.10;66.80
4501;DHT22;2263;54.654;9.410;2023-05-18T13:48:47;16.20;66.80
4501;DHT22;2263;54.654;9.410;2023-05-18T13:51:14;16.20;66.70
4501;DHT22;2263;54.654;9.410;2023-05-18T13:53:42;16.20;66.70
4501;DHT22;2263;54.654;9.410;2023-05-18T13:56:10;16.20;66.70
4501;DHT22;2263;54.654;9.410;2023-05-18T13:58:37;16.30;64.50
4501;DHT22;2263;54.654;9.410;2023-05-18T14:01:06;16.50;63.80
4501;DHT22;2263;54.654;9.410;2023-05-18T14:03:39;16.60;62.50
4501;DHT22;2263;54.654;9.410;2023-05-18T14:06:07;16.70;61.30
4501;DHT22;2263;54.654;9.410;2023-05-18T14:08:35;16.60;61.50
4501;DHT22;2263;54.654;9.410;2023-05-18T14:11:02;16.50;60.80
4501;DHT22;2263;54.654;9.410;2023-05-18T14:13:30;16.50;61.00
4501;DHT22;2263;54.654;9.410;2023-05-18T14:15:58;16.60;60.70
4501;DHT22;2263;54.654;9.410;2023-05-18T14:18:25;16.70;62.40
4501;DHT22;2263;54.654;9.410;2023-05-18T14:20:53;16.90;61.60
4501;DHT22;2263;54.654;9.410;2023-05-18T14:23:21;16.90;62.20
4501;DHT22;2263;54.654;9.410;2023-05-18T14:25:50;16.90;63.00
4501;DHT22;2263;54.654;9.410;2023-05-18T14:28:18;16.90;63.30
4501;DHT22;2263;54.654;9.410;2023-05-18T14:30:45;16.90;63.60
4501;DHT22;2263;54.654;9.410;2023-05-18T14:33:13;17.00;63.80
4501;DHT22;2263;54.654;9.410;2023-05-18T14:35:41;17.00;63.70
4501;DHT22;2263;54.654;9.410;2023-05-18T14:38:08;17.00;63.50
4501;DHT22;2263;54.654;9.410;2023-05-18T14:40:36;17.00;63.80
4501;DHT22;2263;54.654;9.410;2023-05-18T14:43:03;17.00;64.20
4501;DHT22;2263;54.654;9.410;2023-05-18T14:45:31;17.00;64.40
4501;DHT22;2263;54.654;9.410;2023-05-18T14:47:58;17.00;64.50
4501;DHT22;2263;54.654;9.410;2023-05-18T14:50:26;17.00;64.40
4501;DHT22;2263;54.654;9.410;2023-05-18T14:52:54;17.00;62.60
4501;DHT22;2263;54.654;9.410;2023-05-18T14:55:21;16.90;61.20
4501;DHT22;2263;54.654;9.410;2023-05-18T14:57:49;16.90;62.10
4501;DHT22;2263;54.654;9.410;2023-05-18T15:00:17;16.90;61.20
4501;DHT22;2263;54.654;9.410;2023-05-18T15:02:44;16.90;62.10
4501;DHT22;2263;54.654;9.410;2023-05-18T15:05:12;16.90;61.70
4501;DHT22;2263;54.654;9.410;2023-05-18T15:07:40;17.00;61.20
4501;DHT22;2263;54.654;9.410;2023-05-18T15:10:08;17.00;61.80
4501;DHT22;2263;54.654;9.410;2023-05-18T15:12:35;17.00;61.30
4501;DHT22;2263;54.654;9.410;2023-05-18T15:15:06;17.00;61.50
4501;DHT22;2263;54.654;9.410;2023-05-18T15:17:34;17.00;60.70
4501;DHT22;2263;54.654;9.410;2023-05-18T15:20:02;17.00;61.10
4501;DHT22;2263;54.654;9.410;2023-05-18T15:22:30;17.00;61.50
4501;DHT22;2263;54.654;9.410;2023-05-18T15:24:58;17.20;61.80
4501;DHT22;2263;54.654;9.410;2023-05-18T15:27:27;17.40;60.50
4501;DHT22;2263;54.654;9.410;2023-05-18T15:29:56;17.40;61.00
4501;DHT22;2263;54.654;9.410;2023-05-18T15:32:23;17.40;61.50
4501;DHT22;2263;54.654;9.410;2023-05-18T15:34:53;17.40;61.60
4501;DHT22;2263;54.654;9.410;2023-05-18T15:37:21;17.40;60.60
4501;DHT22;2263;54.654;9.410;2023-05-18T15:39:49;17.40;61.10
4501;DHT22;2263;54.654;9.410;2023-05-18T15:42:16;17.30;60.20
4501;DHT22;2263;54.654;9.410;2023-05-18T15:44:46;17.20;60.10
4501;DHT22;2263;54.654;9.410;2023-05-18T15:47:13;17.10;60.50
4501;DHT22;2263;54.654;9.410;2023-05-18T15:49:41;17.10;61.10
4501;DHT22;2263;54.654;9.410;2023-05-18T15:52:08;17.10;60.80
4501;DHT22;2263;54.654;9.410;2023-05-18T15:54:36;17.10;60.00
4501;DHT22;2263;54.654;9.410;2023-05-18T15:57:04;17.10;59.70
4501;DHT22;2263;54.654;9.410;2023-05-18T15:59:32;17.10;60.10
4501;DHT22;2263;54.654;9.410;2023-05-18T16:01:59;17.10;59.80
4501;DHT22;2263;54.654;9.410;2023-05-18T16:04:27;17.10;60.70
4501;DHT22;2263;54.654;9.410;2023-05-18T16:06:55;17.20;60.60
4501;DHT22;2263;54.654;9.410;2023-05-18T16:09:22;17.10;60.20
4501;DHT22;2263;54.654;9.410;2023-05-18T16:11:51;17.10;61.00
4501;DHT22;2263;54.654;9.410;2023-05-18T16:14:20;17.00;61.30
4501;DHT22;2263;54.654;9.410;2023-05-18T16:16:48;17.00;62.20
4501;DHT22;2263;54.654;9.410;2023-05-18T16:19:15;17.10;62.60
4501;DHT22;2263;54.654;9.410;2023-05-18T16:21:44;17.10;62.80
4501;DHT22;2263;54.654;9.410;2023-05-18T16:24:12;17.10;63.10
4501;DHT22;2263;54.654;9.410;2023-05-18T16:26:39;17.10;63.30
4501;DHT22;2263;54.654;9.410;2023-05-18T16:29:07;17.10;63.40